createdAt,value
2018-02-23T00:01:34.104Z,59.75
2018-02-23T00:04:01.709Z,59.95
2018-02-23T00:06:29.145Z,59.78
2018-02-23T00:08:56.589Z,59.53
2018-02-23T00:11:24.053Z,60.06
2018-02-23T00:13:51.689Z,60.24
2018-02-23T00:16:19.157Z,60.19
2018-02-23T00:18:46.597Z,59.81
2018-02-23T00:21:14.058Z,59.48
2018-02-23T00:23:41.526Z,59.77
2018-02-23T00:26:08.965Z,59.65
2018-02-23T00:28:36.425Z,59.54
2018-02-23T00:31:03.948Z,59.76
2018-02-23T00:33:31.392Z,60.19
2018-02-23T00:35:58.997Z,60.34
2018-02-23T00:38:26.444Z,59.74
2018-02-23T00:40:53.933Z,59.79
2018-02-23T00:43:21.372Z,59.98
2018-02-23T00:45:48.817Z,60.24
2018-02-23T00:48:16.300Z,60.93
2018-02-23T00:50:43.821Z,60.53
2018-02-23T00:53:11.273Z,60.49
2018-02-23T00:55:38.764Z,60.22
2018-02-23T00:58:06.212Z,60.25
2018-02-23T01:00:33.981Z,60.23
2018-02-23T01:03:01.449Z,60.25
2018-02-23T01:05:28.934Z,60.23
2018-02-23T01:07:56.376Z,60.38
2018-02-23T01:10:23.817Z,60.31
2018-02-23T01:12:51.497Z,60.52
2018-02-23T01:15:18.981Z,59.85
2018-02-23T01:17:46.441Z,59.70
2018-02-23T01:20:13.901Z,59.78
2018-02-23T01:22:41.349Z,60.42
2018-02-23T01:25:08.805Z,60.37
2018-02-23T01:27:36.264Z,60.29
2018-02-23T01:30:03.708Z,60.52
2018-02-23T01:32:31.156Z,60.12
2018-02-23T01:34:58.663Z,60.84
2018-02-23T01:37:26.108Z,60.25
2018-02-23T01:39:53.553Z,60.65
2018-02-23T01:42:21.014Z,60.36
2018-02-23T01:44:48.453Z,60.60
2018-02-23T01:47:15.911Z,61.08
2018-02-23T01:49:43.378Z,61.11
2018-02-23T01:52:10.864Z,60.93
2018-02-23T01:54:38.305Z,60.68
2018-02-23T01:57:05.773Z,61.38
2018-02-23T01:59:34.149Z,61.24
2018-02-23T02:02:01.593Z,61.15
2018-02-23T02:04:29.053Z,60.45
2018-02-23T02:06:56.518Z,60.30
2018-02-23T02:09:23.981Z,60.32
2018-02-23T02:11:51.712Z,60.13
2018-02-23T02:14:19.152Z,60.10
2018-02-23T02:16:46.614Z,60.21
2018-02-23T02:19:14.074Z,60.01
2018-02-23T02:21:41.523Z,60.36
2018-02-23T02:24:08.979Z,60.70
2018-02-23T02:26:36.466Z,60.73
2018-02-23T02:29:03.905Z,61.17
2018-02-23T02:31:31.345Z,61.11
2018-02-23T02:33:59.050Z,61.31
2018-02-23T02:36:26.498Z,61.16
2018-02-23T02:38:53.937Z,61.08
2018-02-23T02:41:21.481Z,61.42
2018-02-23T02:43:48.933Z,61.53
2018-02-23T02:46:16.707Z,61.37
2018-02-23T02:48:44.442Z,61.46
2018-02-23T02:51:11.886Z,61.34
2018-02-23T02:53:39.380Z,61.53
2018-02-23T02:56:07.152Z,60.87
2018-02-23T02:58:34.714Z,60.84
2018-02-23T03:01:02.181Z,60.77
2018-02-23T03:03:29.757Z,60.85
2018-02-23T03:05:57.202Z,60.97
2018-02-23T03:08:24.678Z,60.93
2018-02-23T03:10:52.153Z,60.91
2018-02-23T03:13:19.602Z,60.82
2018-02-23T03:15:47.045Z,60.81
2018-02-23T03:18:14.513Z,60.78
2018-02-23T03:20:41.968Z,60.80
2018-02-23T03:23:09.406Z,60.96
2018-02-23T03:25:37.098Z,60.81
2018-02-23T03:28:04.542Z,61.28
2018-02-23T03:30:31.988Z,61.41
2018-02-23T03:32:59.954Z,61.25
2018-02-23T03:35:27.393Z,61.02
2018-02-23T03:37:54.845Z,61.41
2018-02-23T03:40:22.481Z,61.61
2018-02-23T03:42:49.921Z,61.33
2018-02-23T03:45:17.549Z,61.78
2018-02-23T03:47:45.021Z,61.57
2018-02-23T03:50:12.464Z,61.48
2018-02-23T03:52:39.906Z,61.66
2018-02-23T03:55:07.565Z,61.08
2018-02-23T03:57:35.018Z,61.67
2018-02-23T04:00:02.461Z,62.11
2018-02-23T04:02:30.067Z,61.80
2018-02-23T04:04:57.576Z,61.61
2018-02-23T04:07:25.018Z,61.03
2018-02-23T04:09:52.487Z,61.14
2018-02-23T04:12:19.929Z,61.08
2018-02-23T04:14:47.365Z,61.19
2018-02-23T04:17:16.747Z,61.29
2018-02-23T04:19:44.177Z,60.88
2018-02-23T04:22:11.657Z,60.92
2018-02-23T04:24:39.134Z,60.74
2018-02-23T04:27:06.649Z,60.61
2018-02-23T04:29:34.095Z,60.62
2018-02-23T04:32:02.027Z,60.90
2018-02-23T04:34:29.508Z,60.73
2018-02-23T04:36:56.949Z,60.82
2018-02-23T04:39:24.449Z,60.71
2018-02-23T04:41:51.906Z,60.46
2018-02-23T04:44:19.350Z,60.57
2018-02-23T04:46:46.856Z,60.75
2018-02-23T04:49:14.441Z,60.02
2018-02-23T04:51:41.909Z,60.12
2018-02-23T04:54:09.573Z,60.39
2018-02-23T04:56:37.033Z,60.38
2018-02-23T04:59:04.477Z,60.44
2018-02-23T05:01:32.300Z,60.56
2018-02-23T05:03:59.740Z,60.45
2018-02-23T05:06:27.185Z,59.97
2018-02-23T05:08:54.660Z,60.39
2018-02-23T05:11:22.121Z,60.10
2018-02-23T05:13:49.557Z,59.94
2018-02-23T05:16:17.395Z,60.70
2018-02-23T05:18:45.134Z,60.39
2018-02-23T05:21:12.573Z,60.17
2018-02-23T05:23:40.189Z,59.90
2018-02-23T05:26:07.633Z,59.73
2018-02-23T05:28:35.121Z,60.08
2018-02-23T05:31:03.530Z,59.85
2018-02-23T05:33:30.972Z,59.83
2018-02-23T05:35:58.414Z,59.57
2018-02-23T05:38:25.990Z,59.65
2018-02-23T05:40:53.437Z,59.94
2018-02-23T05:43:20.916Z,59.32
2018-02-23T05:45:48.580Z,60.26
2018-02-23T05:48:16.022Z,59.98
2018-02-23T05:50:43.469Z,60.09
2018-02-23T05:53:10.941Z,59.52
2018-02-23T05:55:38.381Z,59.05
2018-02-23T05:58:05.821Z,59.10
2018-02-23T06:00:33.329Z,59.48
2018-02-23T06:03:00.792Z,58.96
2018-02-23T06:05:28.342Z,58.87
2018-02-23T06:07:56.229Z,59.38
2018-02-23T06:10:23.690Z,59.37
2018-02-23T06:12:51.184Z,59.45
2018-02-23T06:15:18.944Z,59.22
2018-02-23T06:17:52.150Z,58.85
2018-02-23T06:20:25.366Z,58.89
2018-02-23T06:22:52.829Z,59.29
2018-02-23T06:25:20.269Z,59.28
2018-02-23T06:27:47.972Z,58.69
2018-02-23T06:30:15.416Z,59.40
2018-02-23T06:32:42.889Z,58.53
2018-02-23T06:35:10.578Z,59.08
2018-02-23T06:37:38.033Z,58.90
2018-02-23T06:40:06.713Z,58.61
2018-02-23T06:42:34.197Z,58.64
2018-02-23T06:45:01.685Z,58.99
2018-02-23T06:47:29.132Z,58.96
2018-02-23T06:49:56.784Z,58.67
2018-02-23T06:52:24.256Z,58.50
2018-02-23T06:54:51.703Z,58.83
2018-02-23T06:57:19.344Z,59.11
2018-02-23T06:59:46.864Z,58.74
2018-02-23T07:02:14.309Z,58.49
2018-02-23T07:04:41.941Z,58.74
2018-02-23T07:07:09.395Z,59.08
2018-02-23T07:09:36.842Z,58.42
2018-02-23T07:12:04.488Z,58.20
2018-02-23T07:14:31.932Z,58.50
2018-02-23T07:16:59.381Z,58.29
2018-02-23T07:19:26.890Z,58.33
2018-02-23T07:21:54.336Z,58.13
2018-02-23T07:24:21.778Z,58.05
2018-02-23T07:26:49.806Z,57.50
2018-02-23T07:29:17.245Z,57.62
2018-02-23T07:31:44.685Z,56.77
2018-02-23T07:34:12.477Z,56.49
2018-02-23T07:36:39.936Z,56.41
2018-02-23T07:39:07.393Z,56.36
2018-02-23T07:41:34.889Z,56.27
2018-02-23T07:44:02.332Z,56.17
2018-02-23T07:46:29.774Z,55.84
2018-02-23T07:48:57.252Z,55.43
2018-02-23T07:51:24.698Z,55.39
2018-02-23T07:53:52.146Z,55.35
2018-02-23T07:56:19.833Z,54.83
2018-02-23T07:58:47.274Z,55.01
2018-02-23T08:01:14.721Z,54.78
2018-02-23T08:03:42.373Z,55.04
2018-02-23T08:06:09.826Z,55.08
2018-02-23T08:08:37.273Z,54.71
2018-02-23T08:11:04.765Z,54.56
2018-02-23T08:13:32.649Z,54.76
2018-02-23T08:16:00.094Z,54.10
2018-02-23T08:18:27.585Z,54.57
2018-02-23T08:20:55.059Z,54.20
2018-02-23T08:23:22.506Z,54.14
2018-02-23T08:25:50.086Z,54.72
2018-02-23T08:28:18.753Z,54.91
2018-02-23T08:30:49.160Z,54.63
2018-02-23T08:33:16.801Z,54.40
2018-02-23T08:35:44.290Z,54.58
2018-02-23T08:38:11.765Z,54.66
2018-02-23T08:40:39.228Z,54.50
2018-02-23T08:43:06.678Z,54.84
2018-02-23T08:45:34.118Z,54.55
2018-02-23T08:48:01.581Z,55.43
2018-02-23T08:50:29.037Z,55.05
2018-02-23T08:52:56.519Z,54.50
2018-02-23T08:55:23.997Z,54.42
2018-02-23T08:57:51.443Z,54.50
2018-02-23T09:00:21.041Z,55.09
2018-02-23T09:02:48.507Z,54.39
2018-02-23T09:05:15.956Z,54.72
2018-02-23T09:07:43.410Z,54.71
2018-02-23T09:10:10.881Z,55.12
2018-02-23T09:12:38.380Z,54.82
2018-02-23T09:15:05.841Z,54.82
2018-02-23T09:17:33.318Z,54.46
2018-02-23T09:20:00.781Z,54.61
2018-02-23T09:22:28.240Z,54.67
2018-02-23T09:24:55.708Z,54.19
2018-02-23T09:27:23.158Z,54.86
2018-02-23T09:29:50.608Z,55.05
2018-02-23T09:32:29.832Z,54.55
2018-02-23T09:34:57.312Z,53.99
2018-02-23T09:37:24.957Z,54.12
2018-02-23T09:39:52.421Z,54.15
2018-02-23T09:42:19.867Z,54.59
2018-02-23T09:44:47.337Z,54.54
2018-02-23T09:47:14.780Z,54.69
2018-02-23T09:49:42.327Z,54.05
2018-02-23T09:52:09.769Z,54.46
2018-02-23T09:54:37.215Z,53.87
2018-02-23T09:57:04.673Z,54.83
2018-02-23T09:59:32.121Z,54.67
2018-02-23T10:01:59.826Z,54.22
2018-02-23T10:04:27.277Z,54.93
2018-02-23T10:06:54.721Z,54.46
2018-02-23T10:09:23.201Z,54.12
2018-02-23T10:11:50.641Z,53.55
2018-02-23T10:14:18.110Z,53.51
2018-02-23T10:16:45.566Z,53.93
2018-02-23T10:19:13.011Z,54.03
2018-02-23T10:21:40.499Z,53.81
2018-02-23T10:24:07.944Z,52.96
2018-02-23T10:26:35.715Z,53.48
2018-02-23T10:29:03.174Z,52.61
2018-02-23T10:31:30.616Z,52.63
2018-02-23T10:33:58.112Z,51.79
2018-02-23T10:36:26.074Z,52.93
2018-02-23T10:38:53.551Z,52.51
2018-02-23T10:41:21.021Z,52.58
2018-02-23T10:43:48.480Z,51.65
2018-02-23T10:46:15.960Z,52.55
2018-02-23T10:48:43.423Z,52.89
2018-02-23T10:51:10.873Z,51.51
2018-02-23T10:53:38.533Z,52.37
2018-02-23T10:56:06.499Z,51.29
2018-02-23T10:58:33.962Z,51.59
2018-02-23T11:01:01.507Z,51.32
2018-02-23T11:03:28.953Z,51.54
2018-02-23T11:05:56.418Z,50.91
2018-02-23T11:08:24.266Z,50.62
2018-02-23T11:10:51.725Z,51.03
2018-02-23T11:13:19.206Z,50.44
2018-02-23T11:15:46.681Z,50.61
2018-02-23T11:18:14.129Z,49.96
2018-02-23T11:20:41.585Z,50.39
2018-02-23T11:23:09.050Z,50.75
2018-02-23T11:25:36.521Z,50.64
2018-02-23T11:28:04.033Z,49.60
2018-02-23T11:30:31.493Z,49.93
2018-02-23T11:32:58.941Z,50.04
2018-02-23T11:35:26.414Z,49.90
2018-02-23T11:37:53.882Z,49.38
2018-02-23T11:40:21.361Z,49.67
2018-02-23T11:42:48.906Z,48.94
2018-02-23T11:45:16.365Z,49.23
2018-02-23T11:47:43.845Z,49.18
2018-02-23T11:50:11.293Z,49.83
2018-02-23T11:52:38.937Z,48.51
2018-02-23T11:55:06.459Z,47.49
2018-02-23T11:57:39.807Z,48.85
2018-02-23T12:00:07.249Z,47.58
2018-02-23T12:02:34.697Z,47.36
2018-02-23T12:05:02.161Z,48.17
2018-02-23T12:07:29.640Z,48.17
2018-02-23T12:09:57.365Z,47.54
2018-02-23T12:12:24.821Z,47.12
2018-02-23T12:14:52.264Z,48.05
2018-02-23T12:17:19.733Z,46.82
2018-02-23T12:19:47.394Z,47.05
2018-02-23T12:22:15.221Z,46.18
2018-02-23T12:24:42.665Z,46.89
2018-02-23T12:27:10.111Z,46.26
2018-02-23T12:29:37.577Z,46.41
2018-02-23T12:32:05.037Z,45.79
2018-02-23T12:34:32.988Z,45.44
2018-02-23T12:37:00.508Z,46.01
2018-02-23T12:39:27.953Z,46.91
2018-02-23T12:41:55.432Z,45.39
2018-02-23T12:44:22.896Z,44.40
2018-02-23T12:46:50.845Z,44.37
2018-02-23T12:49:18.295Z,44.99
2018-02-23T12:51:45.801Z,44.67
2018-02-23T12:54:13.278Z,44.39
2018-02-23T12:56:43.050Z,44.86
2018-02-23T12:59:12.286Z,44.52
2018-02-23T13:01:39.828Z,44.50
2018-02-23T13:04:07.783Z,44.76
2018-02-23T13:06:35.285Z,45.17
2018-02-23T13:09:02.831Z,44.99
2018-02-23T13:11:30.542Z,44.53
2018-02-23T13:13:58.025Z,44.61
2018-02-23T13:16:29.510Z,44.48
2018-02-23T13:18:57.358Z,43.63
2018-02-23T13:21:25.825Z,43.62
2018-02-23T13:23:53.305Z,44.10
2018-02-23T13:26:20.773Z,44.33
2018-02-23T13:28:48.313Z,44.11
2018-02-23T13:31:15.961Z,44.33
2018-02-23T13:33:43.413Z,43.81
2018-02-23T13:36:10.898Z,44.03
2018-02-23T13:38:38.358Z,43.71
2018-02-23T13:41:12.778Z,43.73
2018-02-23T13:43:40.290Z,44.35
2018-02-23T13:46:07.754Z,44.04
2018-02-23T13:48:35.252Z,43.60
2018-02-23T13:51:02.753Z,44.15
2018-02-23T13:53:46.177Z,43.54
2018-02-23T13:56:13.763Z,43.76
2018-02-23T13:58:41.214Z,44.13
2018-02-23T14:01:08.942Z,44.30
2018-02-23T14:03:36.402Z,43.85
2018-02-23T14:06:03.863Z,44.05
2018-02-23T14:08:31.542Z,43.81
2018-02-23T14:10:59.015Z,44.39
2018-02-23T14:13:26.461Z,43.79
2018-02-23T14:15:53.947Z,43.64
2018-02-23T14:18:21.400Z,43.03
2018-02-23T14:20:48.854Z,42.75
2018-02-23T14:23:16.342Z,43.14
2018-02-23T14:25:43.791Z,43.32
2018-02-23T14:28:11.374Z,43.28
2018-02-23T14:30:38.854Z,42.97
2018-02-23T14:33:06.351Z,43.08
2018-02-23T14:35:33.922Z,44.21
2018-02-23T14:38:01.384Z,44.34
2018-02-23T14:40:28.858Z,43.79
2018-02-23T14:42:56.361Z,43.58
2018-02-23T14:45:23.801Z,43.62
2018-02-23T14:47:51.293Z,43.88
2018-02-23T14:50:30.929Z,44.11
2018-02-23T14:52:58.593Z,44.38
2018-02-23T14:55:26.056Z,43.58
2018-02-23T14:57:53.538Z,43.66
2018-02-23T15:00:21.001Z,42.52
2018-02-23T15:02:48.617Z,43.56
2018-02-23T15:05:16.122Z,42.63
2018-02-23T15:07:43.569Z,43.02
2018-02-23T15:10:11.022Z,43.29
2018-02-23T15:12:38.512Z,43.09
2018-02-23T15:15:05.957Z,43.87
2018-02-23T15:17:33.609Z,43.44
2018-02-23T15:20:01.085Z,43.55
2018-02-23T15:22:28.528Z,43.61
2018-02-23T15:24:56.007Z,43.40
2018-02-23T15:27:23.526Z,43.58
2018-02-23T15:29:51.249Z,43.79
2018-02-23T15:32:38.601Z,43.98
2018-02-23T15:35:06.461Z,44.07
2018-02-23T15:37:33.921Z,43.99
2018-02-23T15:40:01.373Z,44.95
2018-02-23T15:42:28.857Z,45.05
2018-02-23T15:44:56.305Z,44.40
2018-02-23T15:47:35.229Z,44.67
2018-02-23T15:53:09.854Z,45.03
2018-02-23T15:55:37.305Z,45.52
2018-02-23T16:01:07.593Z,45.48
2018-02-23T16:03:35.073Z,45.72
2018-02-23T16:06:02.521Z,45.46
2018-02-23T16:08:30.001Z,45.47
2018-02-23T16:10:57.471Z,45.72
2018-02-23T16:13:24.933Z,44.90
2018-02-23T16:15:52.667Z,44.42
2018-02-23T16:18:20.122Z,44.71
2018-02-23T16:20:47.566Z,45.03
2018-02-23T16:23:15.041Z,45.59
2018-02-23T16:25:42.514Z,45.98
2018-02-23T16:28:10.001Z,46.75
2018-02-23T16:30:37.472Z,46.60
2018-02-23T16:33:04.961Z,46.38
2018-02-23T16:35:32.429Z,46.82
2018-02-23T16:37:59.886Z,47.10
2018-02-23T16:40:27.357Z,46.89
2018-02-23T16:42:54.805Z,47.25
2018-02-23T16:45:22.294Z,47.82
2018-02-23T16:47:50.080Z,48.07
2018-02-23T16:50:17.565Z,47.84
2018-02-23T16:52:45.274Z,47.29
2018-02-23T16:55:12.736Z,48.17
2018-02-23T16:57:40.180Z,48.45
2018-02-23T17:00:07.648Z,47.83
2018-02-23T17:02:35.629Z,47.85
2018-02-23T17:05:03.116Z,48.21
2018-02-23T17:07:30.573Z,48.64
2018-02-23T17:09:58.021Z,47.79
2018-02-23T17:12:25.517Z,47.96
2018-02-23T17:14:52.965Z,47.95
2018-02-23T17:17:20.409Z,48.53
2018-02-23T17:19:47.889Z,48.86
2018-02-23T17:22:15.374Z,49.76
2018-02-23T17:24:42.813Z,49.79
2018-02-23T17:27:10.471Z,49.80
2018-02-23T17:29:37.917Z,49.21
2018-02-23T17:32:05.396Z,49.38
2018-02-23T17:34:32.892Z,49.22
2018-02-23T17:37:00.341Z,49.15
2018-02-23T17:39:27.813Z,49.80
2018-02-23T17:41:55.278Z,51.02
2018-02-23T17:44:22.771Z,51.14
2018-02-23T17:46:50.221Z,51.19
2018-02-23T17:49:18.024Z,50.77
2018-02-23T17:51:45.541Z,50.98
2018-02-23T17:54:13.025Z,51.46
2018-02-23T17:56:40.501Z,52.45
2018-02-23T17:59:08.177Z,52.35
2018-02-23T18:01:35.717Z,52.20
2018-02-23T18:04:03.174Z,52.06
2018-02-23T18:06:30.688Z,51.81
2018-02-23T18:08:58.101Z,52.14
2018-02-23T18:11:25.582Z,52.07
2018-02-23T18:13:53.101Z,51.69
2018-02-23T18:16:20.574Z,51.16
2018-02-23T18:18:48.059Z,51.45
2018-02-23T18:21:15.702Z,51.82
2018-02-23T18:23:43.581Z,51.79
2018-02-23T18:26:11.038Z,51.41
2018-02-23T18:28:38.491Z,51.77
2018-02-23T18:31:05.967Z,52.04
2018-02-23T18:33:33.429Z,52.45
2018-02-23T18:36:01.277Z,51.69
2018-02-23T18:38:28.729Z,51.75
2018-02-23T18:40:56.185Z,51.64
2018-02-23T18:43:23.665Z,51.46
2018-02-23T18:45:51.148Z,51.76
2018-02-23T18:48:18.630Z,51.67
2018-02-23T18:50:46.072Z,51.37
2018-02-23T18:53:13.521Z,50.85
2018-02-23T18:55:40.989Z,50.81
2018-02-23T18:58:08.442Z,51.11
2018-02-23T19:00:36.885Z,51.10
2018-02-23T19:03:04.325Z,51.33
2018-02-23T19:05:31.780Z,51.51
2018-02-23T19:07:59.267Z,51.91
2018-02-23T19:10:26.720Z,51.73
2018-02-23T19:12:55.058Z,52.01
2018-02-23T19:15:22.652Z,52.15
2018-02-23T19:17:50.153Z,52.32
2018-02-23T19:20:17.629Z,52.10
2018-02-23T19:22:45.117Z,52.59
2018-02-23T19:25:12.711Z,52.57
2018-02-23T19:27:40.096Z,52.70
2018-02-23T19:30:07.557Z,53.04
2018-02-23T19:32:35.070Z,53.19
2018-02-23T19:35:02.541Z,53.28
2018-02-23T19:37:30.060Z,53.17
2018-02-23T19:39:57.523Z,53.19
2018-02-23T19:42:24.990Z,52.47
2018-02-23T19:44:52.506Z,52.78
2018-02-23T19:47:19.957Z,52.83
2018-02-23T19:49:47.801Z,53.41
2018-02-23T19:52:15.284Z,53.42
2018-02-23T19:54:42.743Z,54.35
2018-02-23T19:57:10.283Z,54.01
2018-02-23T19:59:37.896Z,53.91
2018-02-23T20:02:05.574Z,53.83
2018-02-23T20:04:33.063Z,54.06
2018-02-23T20:07:00.520Z,54.20
2018-02-23T20:09:28.017Z,54.46
2018-02-23T20:11:55.689Z,54.63
2018-02-23T20:14:23.277Z,54.89
2018-02-23T20:16:51.368Z,55.09
2018-02-23T20:19:18.817Z,55.16
2018-02-23T20:21:46.339Z,54.69
2018-02-23T20:24:13.798Z,55.17
2018-02-23T20:26:41.607Z,55.14
2018-02-23T20:29:09.062Z,55.03
2018-02-23T20:31:36.553Z,55.12
2018-02-23T20:34:04.045Z,54.79
2018-02-23T20:36:31.514Z,55.53
2018-02-23T20:38:59.158Z,55.50
2018-02-23T20:41:26.663Z,55.50
2018-02-23T20:43:54.083Z,55.06
2018-02-23T20:46:21.565Z,55.11
2018-02-23T20:48:49.025Z,55.32
2018-02-23T20:51:16.899Z,55.22
2018-02-23T20:53:44.358Z,55.31
2018-02-23T20:56:11.813Z,55.60
2018-02-23T20:58:39.431Z,55.63
2018-02-23T21:01:06.892Z,55.98
2018-02-23T21:03:34.657Z,55.33
2018-02-23T21:06:02.117Z,55.84
2018-02-23T21:08:29.573Z,55.68
2018-02-23T21:10:57.179Z,55.74
2018-02-23T21:13:24.700Z,55.77
2018-02-23T21:15:52.377Z,55.87
2018-02-23T21:18:19.850Z,55.93
2018-02-23T21:20:47.304Z,56.02
2018-02-23T21:23:14.795Z,56.34
2018-02-23T21:25:42.275Z,56.09
2018-02-23T21:28:09.775Z,56.20
2018-02-23T21:30:37.225Z,56.25
2018-02-23T21:33:04.693Z,56.29
2018-02-23T21:35:32.173Z,56.66
2018-02-23T21:37:59.625Z,57.03
2018-02-23T21:40:27.163Z,57.02
2018-02-23T21:42:54.620Z,56.62
2018-02-23T21:45:22.096Z,56.49
2018-02-23T21:47:49.570Z,56.74
2018-02-23T21:50:17.037Z,56.84
2018-02-23T21:52:44.682Z,57.09
2018-02-23T21:55:12.133Z,57.19
2018-02-23T21:57:39.867Z,57.42
2018-02-23T22:00:07.341Z,57.29
2018-02-23T22:02:34.788Z,57.41
2018-02-23T22:05:02.341Z,56.81
2018-02-23T22:07:29.794Z,57.58
2018-02-23T22:09:57.241Z,57.34
2018-02-23T22:12:24.717Z,57.55
2018-02-23T22:14:52.168Z,57.97
2018-02-23T22:17:19.655Z,57.46
2018-02-23T22:19:47.118Z,57.96
2018-02-23T22:22:14.574Z,57.94
2018-02-23T22:24:42.052Z,57.58
2018-02-23T22:27:09.524Z,57.79
2018-02-23T22:29:37.017Z,57.65
2018-02-23T22:32:04.469Z,57.96
2018-02-23T22:34:31.953Z,57.95
2018-02-23T22:36:59.432Z,57.92
2018-02-23T22:39:26.901Z,58.01
2018-02-23T22:41:54.381Z,58.23
2018-02-23T22:44:21.836Z,57.86
2018-02-23T22:46:49.294Z,58.09
2018-02-23T22:49:16.770Z,58.39
2018-02-23T22:51:44.222Z,58.58
2018-02-23T22:54:11.725Z,58.29
2018-02-23T22:56:39.389Z,57.71
2018-02-23T22:59:06.845Z,57.84
2018-02-23T23:01:34.345Z,57.76
2018-02-23T23:04:01.806Z,57.92
2018-02-23T23:06:29.541Z,58.02
2018-02-23T23:08:56.989Z,58.36
2018-02-23T23:11:24.445Z,58.23
2018-02-23T23:13:51.917Z,58.33
2018-02-23T23:16:19.365Z,58.58
2018-02-23T23:18:47.046Z,59.08
2018-02-23T23:21:14.556Z,59.26
2018-02-23T23:23:42.049Z,59.45
2018-02-23T23:26:09.522Z,59.58
2018-02-23T23:28:36.972Z,59.64
2018-02-23T23:31:04.685Z,59.40
2018-02-23T23:33:32.132Z,59.50
2018-02-23T23:35:59.604Z,59.95
2018-02-23T23:38:27.110Z,60.04
2018-02-23T23:40:54.557Z,60.12
2018-02-23T23:43:22.659Z,60.09
2018-02-23T23:45:50.276Z,60.32
2018-02-23T23:48:17.742Z,60.15
2018-02-23T23:50:45.231Z,60.38
2018-02-23T23:53:12.724Z,60.64
2018-02-23T23:55:40.289Z,60.49
2018-02-23T23:58:07.743Z,60.93
